createdAt,value
2022-10-06T00:01:28.009Z,14.30
2022-10-06T00:03:54.694Z,15.18
2022-10-06T00:06:21.218Z,14.32
2022-10-06T00:08:47.775Z,12.95
2022-10-06T00:11:15.051Z,14.07
2022-10-06T00:13:41.940Z,16.65
2022-10-06T00:16:10.497Z,14.40
2022-10-06T00:18:37.091Z,15.32
2022-10-06T00:21:04.232Z,16.15
2022-10-06T00:23:30.964Z,12.07
2022-10-06T00:25:58.409Z,13.13
2022-10-06T00:28:25.572Z,15.60
2022-10-06T00:30:53.600Z,17.05
2022-10-06T00:33:20.322Z,14.38
2022-10-06T00:35:46.855Z,15.57
2022-10-06T00:38:14.390Z,13.57
2022-10-06T00:40:48.408Z,17.65
2022-10-06T00:43:49.100Z,13.70
2022-10-06T00:46:16.389Z,13.27
2022-10-06T00:48:43.096Z,15.20
2022-10-06T00:51:09.875Z,15.30
2022-10-06T00:53:36.385Z,15.40
2022-10-06T00:56:02.950Z,14.87
2022-10-06T00:58:29.871Z,14.75
2022-10-06T01:00:56.734Z,15.27
2022-10-06T01:03:34.702Z,15.60
2022-10-06T01:06:02.107Z,14.02
2022-10-06T01:08:29.143Z,13.55
2022-10-06T01:10:55.867Z,15.80
2022-10-06T01:13:22.433Z,14.40
2022-10-06T01:16:10.144Z,15.35
2022-10-06T01:18:37.364Z,15.15
2022-10-06T01:21:06.089Z,12.98
2022-10-06T01:23:32.829Z,18.08
2022-10-06T01:25:59.369Z,15.02
2022-10-06T01:28:26.461Z,15.77
2022-10-06T01:30:54.359Z,16.77
2022-10-06T01:33:21.512Z,13.30
2022-10-06T01:35:51.756Z,15.45
2022-10-06T01:38:18.302Z,13.00
2022-10-06T01:40:45.094Z,17.65
2022-10-06T01:43:11.745Z,13.70
2022-10-06T01:45:38.375Z,14.75
2022-10-06T01:48:05.249Z,14.85
2022-10-06T01:50:31.798Z,14.53
2022-10-06T01:52:58.329Z,14.77
2022-10-06T01:55:25.271Z,17.30
2022-10-06T01:57:51.950Z,16.30
2022-10-06T02:00:18.558Z,15.10
2022-10-06T02:02:45.109Z,16.87
2022-10-06T02:05:11.673Z,15.10
2022-10-06T02:07:38.416Z,18.55
2022-10-06T02:10:05.545Z,15.30
2022-10-06T02:12:32.168Z,20.98
2022-10-06T02:14:58.686Z,19.23
2022-10-06T02:17:25.263Z,14.75
2022-10-06T02:19:51.793Z,18.50
2022-10-06T02:22:18.351Z,15.68
2022-10-06T02:24:45.028Z,17.73
2022-10-06T02:27:11.568Z,19.02
2022-10-06T02:29:38.083Z,17.15
2022-10-06T02:32:05.166Z,17.95
2022-10-06T02:34:31.691Z,19.62
2022-10-06T02:36:58.228Z,18.83
2022-10-06T02:39:24.746Z,22.13
2022-10-06T02:41:51.291Z,16.17
2022-10-06T02:44:18.099Z,16.75
2022-10-06T02:46:44.740Z,15.38
2022-10-06T02:49:11.417Z,19.10
2022-10-06T02:51:37.957Z,17.80
2022-10-06T02:54:04.541Z,19.73
2022-10-06T02:56:31.067Z,16.75
2022-10-06T02:58:57.591Z,15.80
2022-10-06T03:01:25.792Z,15.50
2022-10-06T03:03:52.609Z,18.30
2022-10-06T03:06:23.984Z,18.50
2022-10-06T03:08:50.637Z,19.25
2022-10-06T03:11:19.399Z,15.95
2022-10-06T03:13:49.860Z,16.98
2022-10-06T03:16:20.314Z,17.00
2022-10-06T03:18:51.036Z,17.30
2022-10-06T03:21:18.291Z,21.08
2022-10-06T03:23:45.375Z,21.67
2022-10-06T03:26:12.133Z,14.65
2022-10-06T03:28:40.086Z,15.63
2022-10-06T03:31:06.890Z,17.08
2022-10-06T03:33:34.652Z,19.15
2022-10-06T03:38:30.085Z,19.77
2022-10-06T03:41:06.642Z,18.95
2022-10-06T03:43:33.733Z,20.42
2022-10-06T03:46:03.276Z,17.58
2022-10-06T03:48:30.817Z,18.92
2022-10-06T03:50:58.678Z,19.73
2022-10-06T03:53:29.484Z,19.25
2022-10-06T03:56:22.542Z,16.77
2022-10-06T03:58:51.025Z,19.25
2022-10-06T04:01:25.864Z,19.83
2022-10-06T04:03:56.671Z,19.77
2022-10-06T04:06:23.845Z,17.48
2022-10-06T04:08:50.819Z,14.85
2022-10-06T04:11:21.043Z,18.87
2022-10-06T04:13:48.111Z,15.60
2022-10-06T04:16:15.681Z,19.42
2022-10-06T04:18:42.627Z,27.90
2022-10-06T04:21:09.149Z,19.80
2022-10-06T04:23:36.544Z,18.92
2022-10-06T04:26:06.336Z,22.13
2022-10-06T04:28:33.584Z,15.85
2022-10-06T04:31:00.698Z,16.73
2022-10-06T04:33:27.629Z,16.27
2022-10-06T04:35:58.341Z,17.83
2022-10-06T04:38:24.934Z,16.58
2022-10-06T04:40:51.467Z,16.42
2022-10-06T04:43:18.004Z,19.42
2022-10-06T04:45:44.580Z,15.15
2022-10-06T04:48:11.121Z,16.58
2022-10-06T04:50:37.664Z,18.27
2022-10-06T04:53:04.195Z,17.20
2022-10-06T04:55:30.731Z,19.02
2022-10-06T04:57:57.255Z,17.08
2022-10-06T05:00:25.160Z,19.30
2022-10-06T05:02:57.643Z,19.95
2022-10-06T05:05:24.238Z,20.52
2022-10-06T05:07:50.761Z,17.70
2022-10-06T05:10:17.473Z,17.20
2022-10-06T05:12:44.144Z,18.27
2022-10-06T05:15:10.855Z,15.40
2022-10-06T05:17:37.380Z,19.23
2022-10-06T05:20:04.113Z,20.95
2022-10-06T05:22:30.646Z,16.67
2022-10-06T05:24:57.206Z,18.23
2022-10-06T05:27:23.864Z,17.02
2022-10-06T05:29:50.469Z,20.60
2022-10-06T05:32:17.155Z,15.60
2022-10-06T05:34:43.801Z,18.30
2022-10-06T05:37:10.463Z,15.80
2022-10-06T05:39:37.030Z,17.60
2022-10-06T05:42:03.886Z,16.40
2022-10-06T05:44:30.406Z,16.00
2022-10-06T05:46:56.927Z,15.95
2022-10-06T05:49:24.058Z,15.68
2022-10-06T05:51:50.633Z,14.20
2022-10-06T05:54:17.215Z,15.07
2022-10-06T05:56:44.165Z,19.85
2022-10-06T05:59:10.722Z,13.75
2022-10-06T06:01:40.025Z,14.68
2022-10-06T06:04:08.470Z,16.42
2022-10-06T06:06:42.675Z,14.32
2022-10-06T06:09:16.848Z,15.75
2022-10-06T06:11:45.079Z,20.15
2022-10-06T06:14:13.016Z,19.48
2022-10-06T06:16:40.100Z,17.20
2022-10-06T06:19:07.505Z,18.75
2022-10-06T06:21:34.205Z,18.67
2022-10-06T06:24:00.742Z,18.73
2022-10-06T06:26:28.870Z,19.70
2022-10-06T06:29:03.937Z,18.58
2022-10-06T06:31:32.007Z,19.92
2022-10-06T06:33:59.488Z,17.95
2022-10-06T06:36:35.965Z,19.60
2022-10-06T06:39:07.787Z,21.05
2022-10-06T06:41:38.922Z,17.35
2022-10-06T06:44:07.313Z,23.05
2022-10-06T06:49:05.840Z,22.77
2022-10-06T06:51:34.521Z,21.95
2022-10-06T06:54:02.575Z,18.73
2022-10-06T06:56:29.694Z,21.40
2022-10-06T06:58:56.294Z,19.75
2022-10-06T07:01:23.101Z,23.70
2022-10-06T07:03:58.276Z,18.73
2022-10-06T07:06:28.573Z,17.65
2022-10-06T07:08:56.761Z,19.23
2022-10-06T07:14:08.561Z,19.15
2022-10-06T07:16:53.747Z,20.62
2022-10-06T07:19:39.857Z,17.65
2022-10-06T07:22:27.663Z,15.02
2022-10-06T07:25:07.140Z,15.85
2022-10-06T07:27:51.115Z,19.23
2022-10-06T07:30:22.654Z,18.55
2022-10-06T07:32:50.237Z,15.98
2022-10-06T07:35:17.728Z,17.25
2022-10-06T07:37:44.292Z,16.50
2022-10-06T07:40:11.156Z,18.20
2022-10-06T07:42:48.499Z,21.73
2022-10-06T07:45:44.998Z,15.60
2022-10-06T07:48:20.042Z,18.00
2022-10-06T07:50:50.558Z,15.90
2022-10-06T07:53:17.969Z,16.15
2022-10-06T07:58:17.803Z,17.98
2022-10-06T08:00:44.966Z,19.67
2022-10-06T08:03:12.533Z,19.15
2022-10-06T08:05:39.188Z,18.73
2022-10-06T08:08:06.359Z,17.77
2022-10-06T08:10:32.942Z,15.68
2022-10-06T08:12:59.526Z,18.85
2022-10-06T08:15:26.058Z,16.20
2022-10-06T08:17:54.197Z,15.10
2022-10-06T08:20:20.759Z,22.73
2022-10-06T08:22:47.799Z,19.83
2022-10-06T08:25:14.854Z,24.75
2022-10-06T08:27:44.202Z,16.27
2022-10-06T08:30:11.212Z,21.12
2022-10-06T08:32:37.784Z,19.80
2022-10-06T08:35:04.570Z,19.10
2022-10-06T08:37:31.608Z,18.20
2022-10-06T08:39:59.244Z,16.50
2022-10-06T08:42:34.439Z,15.93
2022-10-06T08:45:03.850Z,17.85
2022-10-06T08:47:33.773Z,15.30
2022-10-06T08:50:00.388Z,18.98
2022-10-06T08:52:35.991Z,18.00
2022-10-06T08:55:50.284Z,26.00
2022-10-06T08:58:38.372Z,23.45
2022-10-06T09:01:09.493Z,21.65
2022-10-06T09:03:37.779Z,24.75
2022-10-06T09:06:12.573Z,19.33
2022-10-06T09:08:45.062Z,24.60
2022-10-06T09:11:33.425Z,23.50
2022-10-06T09:14:06.413Z,18.10
2022-10-06T09:16:35.636Z,16.80
2022-10-06T09:19:09.552Z,21.55
2022-10-06T09:21:42.082Z,18.42
2022-10-06T09:24:33.800Z,27.15
2022-10-06T09:27:00.372Z,21.00
2022-10-06T09:29:31.746Z,22.27
2022-10-06T09:31:59.214Z,22.00
2022-10-06T09:37:01.732Z,23.92
2022-10-06T09:39:36.475Z,19.90
2022-10-06T09:42:07.813Z,22.77
2022-10-06T09:44:50.112Z,22.95
2022-10-06T09:47:36.497Z,25.67
2022-10-06T09:50:10.103Z,19.65
2022-10-06T09:52:36.676Z,23.77
2022-10-06T09:55:17.171Z,18.52
2022-10-06T09:57:51.245Z,19.17
2022-10-06T10:00:31.635Z,18.05
2022-10-06T10:03:02.761Z,20.52
2022-10-06T10:05:30.494Z,18.67
2022-10-06T10:08:17.376Z,17.65
2022-10-06T10:10:44.000Z,17.50
2022-10-06T10:13:24.490Z,14.07
2022-10-06T10:15:59.087Z,15.10
2022-10-06T10:18:27.452Z,15.45
2022-10-06T10:21:05.179Z,18.40
2022-10-06T10:23:42.626Z,15.43
2022-10-06T10:26:35.853Z,18.58
2022-10-06T10:29:32.758Z,17.40
2022-10-06T10:32:18.599Z,17.55
2022-10-06T10:35:21.057Z,15.85
2022-10-06T10:38:03.627Z,15.18
2022-10-06T10:40:37.475Z,12.45
2022-10-06T10:43:10.619Z,15.65
2022-10-06T10:45:42.825Z,15.13
2022-10-06T10:48:25.117Z,18.27
2022-10-06T10:50:59.627Z,13.52
2022-10-06T10:53:38.921Z,15.25
2022-10-06T10:56:09.394Z,21.27
2022-10-06T11:01:35.195Z,16.52
2022-10-06T11:04:02.326Z,16.98
2022-10-06T11:06:39.601Z,12.93
2022-10-06T11:09:09.270Z,14.17
2022-10-06T11:11:54.372Z,16.30
2022-10-06T11:14:52.838Z,14.90
2022-10-06T11:17:35.380Z,22.77
2022-10-06T11:20:41.684Z,16.40
2022-10-06T11:23:25.371Z,18.48
2022-10-06T11:26:13.752Z,12.90
2022-10-06T11:28:51.924Z,22.45
2022-10-06T11:34:04.633Z,13.90
2022-10-06T11:36:56.135Z,20.08
2022-10-06T11:39:44.818Z,15.88
2022-10-06T11:42:23.456Z,18.02
2022-10-06T11:45:05.798Z,16.58
2022-10-06T11:47:36.502Z,16.80
2022-10-06T11:50:24.279Z,11.38
2022-10-06T11:52:52.304Z,14.45
2022-10-06T11:55:20.392Z,12.18
2022-10-06T12:01:02.390Z,14.20
2022-10-06T12:03:29.112Z,16.27
2022-10-06T12:05:56.768Z,13.47
2022-10-06T12:08:36.663Z,16.17
2022-10-06T12:11:03.216Z,12.23
2022-10-06T12:17:09.414Z,17.67
2022-10-06T12:19:24.824Z,17.83
2022-10-06T12:21:57.273Z,16.17
2022-10-06T12:25:10.665Z,15.07
2022-10-06T12:27:47.473Z,12.93
2022-10-06T12:30:20.026Z,15.85
2022-10-06T12:32:50.403Z,13.30
2022-10-06T12:35:19.202Z,13.80
2022-10-06T12:37:54.003Z,14.02
2022-10-06T12:40:46.839Z,14.25
2022-10-06T12:43:21.578Z,14.48
2022-10-06T12:46:01.048Z,14.05
2022-10-06T12:48:37.648Z,18.70
2022-10-06T12:51:13.049Z,11.63
2022-10-06T12:53:51.481Z,16.83
2022-10-06T12:56:31.977Z,19.02
2022-10-06T12:58:58.817Z,11.20
2022-10-06T13:01:26.603Z,17.10
2022-10-06T13:03:53.263Z,13.25
2022-10-06T13:06:24.681Z,14.47
2022-10-06T13:09:12.690Z,12.77
2022-10-06T13:11:39.269Z,16.42
2022-10-06T13:14:24.801Z,15.40
2022-10-06T13:16:53.061Z,12.40
2022-10-06T13:19:25.386Z,10.70
2022-10-06T13:21:51.949Z,13.00
2022-10-06T13:24:23.186Z,10.30
2022-10-06T13:26:51.805Z,9.93
2022-10-06T13:29:22.898Z,11.75
2022-10-06T13:31:53.960Z,10.40
2022-10-06T13:34:33.360Z,16.12
2022-10-06T13:37:00.210Z,14.57
2022-10-06T13:39:31.568Z,13.90
2022-10-06T13:42:04.506Z,10.20
2022-10-06T13:44:42.163Z,10.65
2022-10-06T13:47:19.425Z,13.93
2022-10-06T13:49:58.833Z,12.17
2022-10-06T13:52:34.088Z,12.00
2022-10-06T13:55:01.450Z,9.18
2022-10-06T13:57:48.629Z,12.85
2022-10-06T14:00:15.252Z,10.70
2022-10-06T14:02:46.774Z,13.70
2022-10-06T14:05:23.577Z,11.40
2022-10-06T14:07:50.380Z,12.60
2022-10-06T14:10:31.803Z,16.83
2022-10-06T14:13:00.585Z,11.05
2022-10-06T14:15:29.622Z,12.70
2022-10-06T14:18:00.799Z,14.23
2022-10-06T14:20:36.058Z,12.98
2022-10-06T14:23:02.603Z,13.55
2022-10-06T14:25:29.198Z,13.50
2022-10-06T14:27:55.858Z,13.33
2022-10-06T14:30:22.455Z,12.37
2022-10-06T14:32:49.684Z,16.80
2022-10-06T14:35:16.231Z,11.70
2022-10-06T14:37:42.772Z,11.63
2022-10-06T14:40:12.203Z,16.08
2022-10-06T14:42:39.013Z,14.82
2022-10-06T14:45:06.041Z,11.17
2022-10-06T14:47:32.619Z,15.13
2022-10-06T14:49:59.234Z,11.07
2022-10-06T14:52:25.898Z,10.40
2022-10-06T14:54:52.480Z,8.83
2022-10-06T14:57:21.721Z,12.67
2022-10-06T14:59:48.288Z,13.07
2022-10-06T15:02:14.822Z,13.10
2022-10-06T15:04:41.371Z,11.43
2022-10-06T15:07:26.487Z,15.23
2022-10-06T15:09:53.048Z,16.48
2022-10-06T15:12:19.567Z,11.63
2022-10-06T15:14:47.186Z,9.57
2022-10-06T15:17:13.745Z,12.30
2022-10-06T15:19:40.827Z,13.30
2022-10-06T15:22:08.903Z,11.52
2022-10-06T15:24:35.490Z,11.35
2022-10-06T15:27:24.668Z,11.93
2022-10-06T15:29:51.760Z,10.50
2022-10-06T15:32:18.283Z,11.23
2022-10-06T15:34:45.025Z,11.98
2022-10-06T15:37:11.546Z,7.93
2022-10-06T15:39:38.185Z,5.72
2022-10-06T15:42:05.245Z,10.20
2022-10-06T15:44:32.086Z,11.60
2022-10-06T15:46:58.775Z,9.63
2022-10-06T15:49:26.341Z,12.77
2022-10-06T15:54:23.594Z,9.90
2022-10-06T15:56:51.391Z,10.38
2022-10-06T15:59:19.022Z,11.12
2022-10-06T16:01:47.819Z,10.65
2022-10-06T16:04:45.004Z,11.68
2022-10-06T16:07:12.856Z,10.38
2022-10-06T16:09:43.407Z,7.97
2022-10-06T16:12:11.340Z,9.02
2022-10-06T16:14:38.019Z,9.68
2022-10-06T16:17:05.619Z,9.63
2022-10-06T16:19:32.395Z,8.60
2022-10-06T16:21:59.836Z,12.98
2022-10-06T16:24:26.685Z,7.50
2022-10-06T16:26:53.441Z,11.57
2022-10-06T16:29:21.732Z,12.40
2022-10-06T16:31:48.488Z,7.20
2022-10-06T16:34:15.133Z,9.45
2022-10-06T16:36:41.920Z,11.82
2022-10-06T16:39:14.097Z,8.00
2022-10-06T16:41:40.685Z,10.07
2022-10-06T16:44:07.241Z,12.10
2022-10-06T16:46:33.863Z,9.80
2022-10-06T16:49:01.153Z,11.67
2022-10-06T16:51:32.904Z,12.15
2022-10-06T16:54:01.114Z,9.00
2022-10-06T16:56:32.053Z,10.68
2022-10-06T16:59:00.185Z,12.27
2022-10-06T17:01:28.330Z,10.30
2022-10-06T17:04:06.689Z,11.20
2022-10-06T17:06:39.227Z,10.52
2022-10-06T17:09:08.241Z,11.70
2022-10-06T17:11:35.449Z,12.50
2022-10-06T17:14:02.181Z,11.12
2022-10-06T17:16:31.546Z,10.70
2022-10-06T17:18:58.514Z,11.73
2022-10-06T17:21:44.949Z,10.63
2022-10-06T17:24:11.896Z,10.90
2022-10-06T17:26:39.455Z,9.77
2022-10-06T17:31:38.082Z,15.07
2022-10-06T17:34:08.446Z,10.13
2022-10-06T17:36:35.068Z,14.40
2022-10-06T17:39:02.011Z,8.00
2022-10-06T17:41:33.449Z,12.13
2022-10-06T17:44:03.137Z,10.65
2022-10-06T17:46:31.307Z,9.50
2022-10-06T17:48:57.936Z,9.98
2022-10-06T17:51:25.631Z,10.15
2022-10-06T17:53:53.387Z,12.63
2022-10-06T17:56:24.106Z,12.37
2022-10-06T17:58:54.781Z,10.23
2022-10-06T18:01:22.143Z,9.98
2022-10-06T18:03:48.784Z,9.80
2022-10-06T18:06:17.107Z,15.27
2022-10-06T18:08:44.789Z,11.82
2022-10-06T18:13:58.347Z,12.82
2022-10-06T18:16:26.857Z,15.13
2022-10-06T18:18:54.496Z,12.65
2022-10-06T18:23:48.987Z,12.80
2022-10-06T18:26:17.570Z,14.27
2022-10-06T18:28:45.759Z,12.40
2022-10-06T18:31:13.483Z,11.80
2022-10-06T18:36:26.607Z,14.10
2022-10-06T18:38:55.276Z,14.07
2022-10-06T18:41:22.803Z,18.75
2022-10-06T18:43:49.383Z,11.90
2022-10-06T18:46:35.463Z,15.00
2022-10-06T18:49:11.250Z,14.02
2022-10-06T18:51:48.911Z,17.10
2022-10-06T18:54:17.424Z,19.75
2022-10-06T18:56:47.702Z,14.50
2022-10-06T18:59:14.483Z,15.48
2022-10-06T19:01:42.737Z,16.47
2022-10-06T19:04:10.100Z,14.73
2022-10-06T19:06:37.954Z,18.80
2022-10-06T19:09:05.131Z,18.70
2022-10-06T19:11:42.256Z,21.40
2022-10-06T19:14:09.136Z,18.20
2022-10-06T19:16:35.987Z,20.05
2022-10-06T19:19:04.252Z,19.25
2022-10-06T19:21:31.443Z,17.02
2022-10-06T19:24:01.066Z,20.15
2022-10-06T19:26:27.716Z,15.57
2022-10-06T19:28:54.305Z,19.17
2022-10-06T19:31:20.975Z,17.15
2022-10-06T19:33:47.726Z,18.58
2022-10-06T19:36:16.044Z,21.23
2022-10-06T19:38:42.696Z,16.15
2022-10-06T19:41:27.968Z,18.15
2022-10-06T19:43:54.562Z,18.27
2022-10-06T19:46:21.417Z,18.23
2022-10-06T19:48:54.695Z,20.43
2022-10-06T19:51:22.211Z,17.20
2022-10-06T19:53:51.237Z,16.15
2022-10-06T19:56:18.953Z,16.30
2022-10-06T20:01:12.102Z,18.05
2022-10-06T20:03:42.002Z,12.73
2022-10-06T20:06:11.369Z,19.15
2022-10-06T20:08:38.327Z,13.60
2022-10-06T20:11:06.546Z,15.88
2022-10-06T20:13:34.521Z,16.90
2022-10-06T20:16:01.962Z,16.45
2022-10-06T20:18:28.714Z,14.10
2022-10-06T20:20:56.758Z,19.83
2022-10-06T20:23:23.299Z,19.48
2022-10-06T20:25:49.844Z,20.17
2022-10-06T20:28:16.410Z,21.17
2022-10-06T20:30:49.687Z,18.52
2022-10-06T20:33:16.681Z,16.98
2022-10-06T20:35:43.430Z,20.65
2022-10-06T20:38:10.057Z,18.27
2022-10-06T20:40:49.044Z,16.17
2022-10-06T20:43:15.650Z,19.08
2022-10-06T20:45:42.167Z,13.70
2022-10-06T20:48:08.704Z,15.57
2022-10-06T20:50:35.275Z,15.95
2022-10-06T20:53:01.817Z,16.67
2022-10-06T20:55:28.438Z,16.83
2022-10-06T20:57:55.010Z,14.85
2022-10-06T21:00:24.334Z,16.55
2022-10-06T21:02:50.896Z,14.30
2022-10-06T21:05:17.478Z,15.15
2022-10-06T21:07:44.231Z,15.95
2022-10-06T21:10:10.936Z,19.35
2022-10-06T21:12:37.449Z,17.17
2022-10-06T21:15:04.318Z,16.05
2022-10-06T21:17:30.850Z,18.65
2022-10-06T21:19:57.375Z,18.25
2022-10-06T21:22:23.905Z,19.20
2022-10-06T21:24:50.431Z,17.92
2022-10-06T21:27:18.350Z,20.62
2022-10-06T21:29:44.959Z,22.13
2022-10-06T21:32:11.472Z,19.55
2022-10-06T21:34:39.306Z,22.65
2022-10-06T21:37:05.960Z,20.95
2022-10-06T21:39:32.493Z,19.37
2022-10-06T21:41:59.046Z,19.85
2022-10-06T21:44:25.622Z,18.95
2022-10-06T21:46:53.620Z,19.65
2022-10-06T21:49:21.360Z,21.98
2022-10-06T21:54:14.973Z,18.40
2022-10-06T21:56:41.511Z,18.70
2022-10-06T21:59:08.061Z,17.62
2022-10-06T22:01:36.248Z,21.50
2022-10-06T22:04:03.015Z,20.67
2022-10-06T22:06:30.730Z,18.95
2022-10-06T22:11:25.473Z,20.62
2022-10-06T22:13:54.464Z,18.85
2022-10-06T22:16:22.061Z,22.33
2022-10-06T22:18:48.690Z,19.25
2022-10-06T22:21:21.705Z,18.20
2022-10-06T22:23:53.412Z,15.43
2022-10-06T22:26:19.954Z,21.17
2022-10-06T22:28:47.641Z,16.83
2022-10-06T22:33:40.834Z,16.15
2022-10-06T22:36:07.849Z,19.40
2022-10-06T22:38:34.531Z,18.58
2022-10-06T22:41:01.561Z,15.63
2022-10-06T22:43:28.237Z,16.35
2022-10-06T22:45:54.798Z,18.80
2022-10-06T22:48:21.398Z,16.90
2022-10-06T22:50:48.310Z,19.40
2022-10-06T22:53:16.049Z,17.80
2022-10-06T22:58:09.040Z,17.85
2022-10-06T23:00:36.066Z,16.30
2022-10-06T23:03:02.783Z,16.62
2022-10-06T23:05:29.345Z,16.98
2022-10-06T23:07:55.864Z,15.32
2022-10-06T23:10:22.376Z,16.20
2022-10-06T23:12:48.900Z,19.17
2022-10-06T23:15:15.462Z,15.65
2022-10-06T23:17:42.599Z,14.68
2022-10-06T23:20:09.579Z,14.90
2022-10-06T23:22:36.111Z,17.33
2022-10-06T23:25:02.686Z,16.02
2022-10-06T23:27:29.188Z,13.25
2022-10-06T23:29:55.699Z,16.60
2022-10-06T23:32:22.221Z,14.70
2022-10-06T23:34:48.759Z,15.40
2022-10-06T23:37:15.345Z,16.83
2022-10-06T23:39:41.854Z,16.55
2022-10-06T23:42:09.704Z,14.02
2022-10-06T23:44:40.177Z,15.50
2022-10-06T23:47:06.811Z,16.42
2022-10-06T23:49:33.764Z,16.65
2022-10-06T23:52:01.228Z,15.68
2022-10-06T23:54:27.738Z,17.62
2022-10-06T23:56:55.605Z,16.33
2022-10-06T23:59:22.599Z,17.42
